createdAt,value
2023-05-09T00:00:39.728Z,99735.94
2023-05-09T00:05:42.665Z,99738.16
2023-05-09T00:10:46.919Z,99730.41
2023-05-09T00:15:49.803Z,99728.56
2023-05-09T00:20:52.887Z,99722.75
2023-05-09T00:25:57.279Z,99718.78
2023-05-09T00:31:00.265Z,99708.53
2023-05-09T00:36:03.165Z,99705.56
2023-05-09T00:41:07.546Z,99710.31
2023-05-09T00:46:10.582Z,99700.13
2023-05-09T00:51:13.549Z,99707.34
2023-05-09T00:56:18.503Z,99706.91
2023-05-09T01:01:21.483Z,99696.78
2023-05-09T01:06:39.726Z,99699.47
2023-05-09T01:11:50.114Z,99696.94
2023-05-09T01:16:59.580Z,99684.19
2023-05-09T01:22:04.629Z,99683.03
2023-05-09T01:27:22.214Z,99680.84
2023-05-09T01:32:29.743Z,99667.78
2023-05-09T01:37:35.019Z,99667.25
2023-05-09T01:42:43.594Z,99668.50
2023-05-09T01:47:50.078Z,99655.56
2023-05-09T01:52:57.512Z,99650.84
2023-05-09T01:58:00.947Z,99666.97
2023-05-09T02:03:05.953Z,99654.19
2023-05-09T02:08:09.627Z,99646.53
2023-05-09T02:13:12.743Z,99649.69
2023-05-09T02:18:17.323Z,99646.25
2023-05-09T02:23:20.907Z,99649.16
2023-05-09T02:28:24.896Z,99643.88
2023-05-09T02:33:29.885Z,99637.97
2023-05-09T02:38:33.368Z,99641.41
2023-05-09T02:43:38.325Z,99631.03
2023-05-09T02:48:43.063Z,99640.63
2023-05-09T02:53:46.003Z,99642.59
2023-05-09T02:58:51.477Z,99634.50
2023-05-09T03:03:55.930Z,99644.94
2023-05-09T03:08:59.322Z,99635.72
2023-05-09T03:14:02.466Z,99634.22
2023-05-09T03:19:07.222Z,99631.19
2023-05-09T03:24:11.788Z,99639.06
2023-05-09T03:29:14.753Z,99625.16
2023-05-09T03:34:19.129Z,99622.50
2023-05-09T03:39:22.281Z,99618.75
2023-05-09T03:44:30.160Z,99610.97
2023-05-09T03:49:34.471Z,99619.09
2023-05-09T03:54:37.430Z,99610.94
2023-05-09T03:59:40.667Z,99612.88
2023-05-09T04:04:46.618Z,99609.56
2023-05-09T04:09:50.315Z,99612.44
2023-05-09T04:14:53.458Z,99608.41
2023-05-09T04:19:58.641Z,99602.09
2023-05-09T04:25:02.025Z,99599.97
2023-05-09T04:30:06.328Z,99602.41
2023-05-09T04:35:11.891Z,99590.00
2023-05-09T04:40:18.491Z,99594.59
2023-05-09T04:45:31.857Z,99576.50
2023-05-09T04:50:37.675Z,99579.03
2023-05-09T04:55:40.593Z,99575.34
2023-05-09T05:00:43.978Z,99574.38
2023-05-09T05:05:48.483Z,99564.97
2023-05-09T05:10:51.856Z,99567.91
2023-05-09T05:15:56.380Z,99575.69
2023-05-09T05:21:00.705Z,99569.66
2023-05-09T05:26:03.813Z,99570.22
2023-05-09T05:31:08.676Z,99570.25
2023-05-09T05:36:12.968Z,99565.38
2023-05-09T05:41:16.072Z,99567.25
2023-05-09T05:46:21.593Z,99570.28
2023-05-09T05:51:26.205Z,99563.16
2023-05-09T05:56:29.628Z,99563.69
2023-05-09T06:01:33.456Z,99544.13
2023-05-09T06:06:37.996Z,99545.16
2023-05-09T06:11:41.045Z,99542.22
2023-05-09T06:16:44.272Z,99537.50
2023-05-09T06:21:48.629Z,99535.34
2023-05-09T06:26:51.768Z,99530.41
2023-05-09T06:31:54.827Z,99530.06
2023-05-09T06:36:59.146Z,99525.91
2023-05-09T06:42:02.064Z,99526.03
2023-05-09T06:47:10.154Z,99517.56
2023-05-09T06:52:15.785Z,99514.84
2023-05-09T06:57:18.754Z,99510.53
2023-05-09T07:02:21.651Z,99499.13
2023-05-09T07:07:25.882Z,99480.16
2023-05-09T07:25:32.095Z,99478.97
2023-05-09T07:30:35.045Z,99469.69
2023-05-09T07:35:37.903Z,99470.03
2023-05-09T07:40:42.138Z,99458.59
2023-05-09T07:45:45.109Z,99442.88
2023-05-09T07:50:48.050Z,99448.19
2023-05-09T07:55:52.271Z,99438.31
2023-05-09T08:00:57.119Z,99434.28
2023-05-09T08:18:33.033Z,99426.09
2023-05-09T08:23:36.031Z,99426.81
2023-05-09T08:28:38.903Z,99413.97
2023-05-09T08:33:43.166Z,99411.47
2023-05-09T08:38:46.027Z,99402.44
2023-05-09T08:43:50.260Z,99398.59
2023-05-09T08:48:55.295Z,99403.91
2023-05-09T08:53:58.695Z,99379.19
2023-05-09T09:06:11.376Z,99378.69
2023-05-09T09:11:16.005Z,99370.56
2023-05-09T09:16:21.868Z,99368.13
2023-05-09T09:21:26.278Z,99374.34
2023-05-09T09:26:31.714Z,99372.22
2023-05-09T09:31:34.841Z,99373.78
2023-05-09T09:36:39.140Z,99366.38
2023-05-09T09:41:43.798Z,99363.38
2023-05-09T09:46:48.878Z,99357.31
2023-05-09T09:51:54.884Z,99352.00
2023-05-09T09:56:57.813Z,99353.22
2023-05-09T10:02:04.178Z,99348.06
2023-05-09T10:07:14.823Z,99355.19
2023-05-09T10:12:20.094Z,99351.34
2023-05-09T10:17:24.727Z,99329.44
2023-05-09T10:22:30.998Z,99329.31
2023-05-09T10:27:37.439Z,99331.22
2023-05-09T10:32:44.526Z,99315.41
2023-05-09T10:37:49.708Z,99319.31
2023-05-09T10:42:52.645Z,99314.72
2023-05-09T10:47:57.437Z,99307.16
2023-05-09T10:53:11.102Z,99299.22
2023-05-09T10:58:26.269Z,99274.97
2023-05-09T11:03:31.025Z,99272.53
2023-05-09T11:08:35.483Z,99270.84
2023-05-09T11:13:39.075Z,99267.94
2023-05-09T11:18:53.164Z,99248.38
2023-05-09T11:23:57.440Z,99237.75
2023-05-09T11:29:02.780Z,99230.88
2023-05-09T11:34:06.744Z,99214.38
2023-05-09T11:39:12.447Z,99209.09
2023-05-09T11:44:19.662Z,99204.78
2023-05-09T11:49:22.581Z,99199.31
2023-05-09T11:54:26.891Z,99191.06
2023-05-09T11:59:29.822Z,99184.72
2023-05-09T12:04:33.267Z,99179.09
2023-05-09T12:09:38.679Z,99178.50
2023-05-09T12:14:42.615Z,99169.13
2023-05-09T12:19:45.643Z,99162.84
2023-05-09T12:24:50.587Z,99145.22
2023-05-09T12:29:55.089Z,99149.28
2023-05-09T12:34:58.049Z,99148.97
2023-05-09T12:40:07.542Z,99136.75
2023-05-09T12:45:11.621Z,99131.38
2023-05-09T12:50:14.622Z,99127.00
2023-05-09T12:55:20.017Z,99129.25
2023-05-09T13:00:43.662Z,99107.97
2023-05-09T13:05:55.339Z,99109.91
2023-05-09T13:11:12.000Z,99098.00
2023-05-09T13:16:18.330Z,99092.69
2023-05-09T13:21:21.321Z,99083.75
2023-05-09T13:26:27.063Z,99077.28
2023-05-09T13:31:29.970Z,99060.44
2023-05-09T13:36:32.983Z,99058.47
2023-05-09T13:41:38.210Z,99039.91
2023-05-09T13:46:41.437Z,99029.00
2023-05-09T13:51:45.280Z,99027.22
2023-05-09T13:56:51.248Z,99021.41
2023-05-09T14:01:54.610Z,98994.97
2023-05-09T14:06:58.244Z,98998.78
2023-05-09T14:12:02.631Z,98989.56
2023-05-09T14:17:05.526Z,98981.13
2023-05-09T14:22:08.825Z,98980.75
2023-05-09T14:27:13.115Z,98982.94
2023-05-09T14:32:16.120Z,98962.09
2023-05-09T14:37:19.031Z,98966.91
2023-05-09T14:42:23.338Z,98961.66
2023-05-09T14:47:26.363Z,98948.59
2023-05-09T14:52:29.638Z,98943.56
2023-05-09T14:57:34.373Z,98944.63
2023-05-09T15:02:37.376Z,98933.66
2023-05-09T15:07:40.477Z,98927.78
2023-05-09T15:12:45.129Z,98930.09
2023-05-09T15:17:48.388Z,98931.81
2023-05-09T15:22:51.729Z,98922.78
2023-05-09T15:27:56.727Z,98920.91
2023-05-09T15:32:59.972Z,98915.03
2023-05-09T15:38:02.975Z,98919.59
2023-05-09T15:43:08.576Z,98909.13
2023-05-09T15:48:15.110Z,98896.94
2023-05-09T15:53:17.961Z,98895.16
2023-05-09T15:58:22.260Z,98886.25
2023-05-09T16:03:25.943Z,98887.28
2023-05-09T16:08:28.915Z,98891.38
2023-05-09T16:13:35.712Z,98880.03
2023-05-09T16:18:39.114Z,98871.91
2023-05-09T16:23:42.161Z,98874.16
2023-05-09T16:28:46.442Z,98857.53
2023-05-09T16:33:49.394Z,98857.69
2023-05-09T16:38:52.533Z,98856.97
2023-05-09T16:43:57.296Z,98843.44
2023-05-09T16:49:01.342Z,98837.38
2023-05-09T16:54:04.743Z,98838.09
2023-05-09T16:59:09.172Z,98828.38
2023-05-09T17:04:12.176Z,98824.53
2023-05-09T17:09:15.301Z,98810.78
2023-05-09T17:14:19.880Z,98817.19
2023-05-09T17:19:23.742Z,98814.50
2023-05-09T17:24:26.842Z,98809.22
2023-05-09T17:29:31.170Z,98801.28
2023-05-09T17:34:34.143Z,98800.44
2023-05-09T17:39:37.789Z,98797.81
2023-05-09T17:44:44.184Z,98788.00
2023-05-09T17:49:47.360Z,98789.34
2023-05-09T17:54:50.257Z,98785.88
2023-05-09T17:59:54.571Z,98784.53
2023-05-09T18:04:57.531Z,98773.94
2023-05-09T18:10:00.440Z,98776.78
2023-05-09T18:15:05.256Z,98773.34
2023-05-09T18:20:09.653Z,98768.72
2023-05-09T18:25:12.584Z,98762.34
2023-05-09T18:30:17.494Z,98760.16
2023-05-09T18:35:20.705Z,98763.84
2023-05-09T18:40:23.645Z,98762.69
2023-05-09T18:45:28.041Z,98766.72
2023-05-09T18:50:31.475Z,98763.22
2023-05-09T18:55:34.500Z,98757.09
2023-05-09T19:00:39.455Z,98752.56
2023-05-09T19:05:42.956Z,98753.78
2023-05-09T19:10:45.949Z,98745.75
2023-05-09T19:15:50.326Z,98746.75
2023-05-09T19:20:53.296Z,98735.03
2023-05-09T19:25:56.781Z,98740.31
2023-05-09T19:31:01.114Z,98746.16
2023-05-09T19:36:04.243Z,98744.38
2023-05-09T19:41:07.209Z,98733.53
2023-05-09T19:46:11.647Z,98727.78
2023-05-09T19:51:15.480Z,98729.00
2023-05-09T19:56:18.378Z,98727.38
2023-05-09T20:01:22.708Z,98725.88
2023-05-09T20:06:25.813Z,98720.84
2023-05-09T20:11:28.769Z,98721.97
2023-05-09T20:16:33.090Z,98713.06
2023-05-09T20:21:36.416Z,98715.28
2023-05-09T20:26:39.347Z,98702.38
2023-05-09T20:31:44.482Z,98707.94
2023-05-09T20:36:49.188Z,98689.97
2023-05-09T20:41:52.478Z,98688.78
2023-05-09T20:46:56.756Z,98678.31
2023-05-09T20:51:59.850Z,98678.31
2023-05-09T20:57:02.732Z,98672.91
2023-05-09T21:02:07.020Z,98669.66
2023-05-09T21:07:11.976Z,98659.13
2023-05-09T21:12:14.907Z,98657.94
2023-05-09T21:17:19.493Z,98639.16
2023-05-09T21:22:22.435Z,98636.72
2023-05-09T21:27:25.395Z,98632.84
2023-05-09T21:32:29.750Z,98630.53
2023-05-09T21:37:32.723Z,98631.16
2023-05-09T21:42:37.358Z,98624.78
2023-05-09T21:47:41.819Z,98628.81
2023-05-09T21:52:44.864Z,98621.53
2023-05-09T21:57:47.753Z,98619.25
2023-05-09T22:02:52.072Z,98617.66
2023-05-09T22:07:55.028Z,98611.34
2023-05-09T22:12:58.279Z,98602.66
2023-05-09T22:18:02.723Z,98603.75
2023-05-09T22:23:05.615Z,98606.28
2023-05-09T22:28:09.215Z,98594.34
2023-05-09T22:33:13.661Z,98587.69
2023-05-09T22:38:16.623Z,98586.25
2023-05-09T22:43:20.239Z,98585.13
2023-05-09T22:48:24.574Z,98579.38
2023-05-09T22:53:28.145Z,98565.50
2023-05-09T22:58:31.108Z,98556.72
2023-05-09T23:03:35.488Z,98557.69
2023-05-09T23:08:38.425Z,98548.03
2023-05-09T23:13:41.350Z,98542.31
2023-05-09T23:18:45.604Z,98551.81
2023-05-09T23:23:48.529Z,98543.19
2023-05-09T23:28:51.845Z,98539.38
2023-05-09T23:33:56.221Z,98535.47
2023-05-09T23:38:59.149Z,98522.28
2023-05-09T23:44:03.453Z,98522.63
2023-05-09T23:49:07.901Z,98518.84
2023-05-09T23:54:11.116Z,98512.97
2023-05-09T23:59:14.028Z,98519.81
